Time;durP1;ratioP1;P1;durP2;ratioP2;P2;SDS_P1;SDS_P2;PMS_P1;PMS_P2;Temp;Humidity;BMP_temperature;BMP_pressure;BME280_temperature;BME280_humidity;BME280_pressure;Samples;Min_cycle;Max_cycle;Signal;HPM_P1;HPM_P2
2021/12/10 00:02:06;;;;;;;9.85;8.38;;;;;;;;;;12499548;28;20498;-74
2021/12/10 00:08:08;;;;;;;8.20;7.35;;;;;;;;;;12499498;28;20029;-74
2021/12/10 00:14:10;;;;;;;11.30;8.55;;;;;;;;;;12501042;28;20037;-75
2021/12/10 00:20:12;;;;;;;11.67;9.80;;;;;;;;;;12500284;28;20046;-75
2021/12/10 00:26:14;;;;;;;9.95;8.65;;;;;;;;;;12482370;28;20038;-74
2021/12/10 00:32:29;;;;;;;8.95;7.38;;;;;;;;;;12498487;28;20033;-74
2021/12/10 00:38:30;;;;;;;7.90;6.25;;;;;;;;;;12499432;28;20064;-74
2021/12/10 00:44:32;;;;;;;10.30;8.35;;;;;;;;;;12498801;28;20041;-74
2021/12/10 00:50:38;;;;;;;12.68;10.02;;;;;;;;;;12499645;28;20034;-74
2021/12/10 00:56:41;;;;;;;10.27;8.43;;;;;;;;;;12498643;28;20042;-74
2021/12/10 01:02:44;;;;;;;8.55;6.47;;;;;;;;;;12496915;28;20410;-74
2021/12/10 01:08:47;;;;;;;12.10;10.23;;;;;;;;;;12496765;28;20521;-74
2021/12/10 01:27:27;;;;;;;9.05;8.15;;;;;;;;;;12495740;28;20036;-74
2021/12/10 01:33:29;;;;;;;10.90;9.75;;;;;;;;;;12496558;28;20478;-74
2021/12/10 01:39:34;;;;;;;8.47;7.10;;;;;;;;;;12495176;28;20517;-74
2021/12/10 01:45:46;;;;;;;8.80;7.32;;;;;;;;;;12494972;28;20048;-73
2021/12/10 01:51:48;;;;;;;11.40;9.93;;;;;;;;;;12497027;28;20033;-73
2021/12/10 01:57:51;;;;;;;11.93;10.67;;;;;;;;;;12496016;28;20041;-74
2021/12/10 02:03:54;;;;;;;9.23;8.25;;;;;;;;;;12494091;28;20049;-74
2021/12/10 02:09:56;;;;;;;12.27;10.60;;;;;;;;;;12494195;28;20033;-74
2021/12/10 02:15:58;;;;;;;11.40;10.15;;;;;;;;;;12495115;28;20037;-74
2021/12/10 02:22:00;;;;;;;11.13;9.80;;;;;;;;;;12494832;28;20045;-73
2021/12/10 02:28:03;;;;;;;8.77;7.95;;;;;;;;;;12494968;28;20044;-74
2021/12/10 02:34:05;;;;;;;10.67;9.23;;;;;;;;;;12494403;28;20052;-73
2021/12/10 02:40:09;;;;;;;10.03;9.00;;;;;;;;;;12494148;28;20049;-73
2021/12/10 02:46:11;;;;;;;14.52;12.98;;;;;;;;;;12493321;28;20048;-76
2021/12/10 02:52:14;;;;;;;11.85;10.60;;;;;;;;;;12495426;28;20395;-73
2021/12/10 02:58:16;;;;;;;9.25;8.32;;;;;;;;;;12492946;28;20045;-74
2021/12/10 03:04:17;;;;;;;7.43;6.57;;;;;;;;;;12494042;28;20355;-73
2021/12/10 03:10:22;;;;;;;9.27;8.27;;;;;;;;;;12493934;28;20533;-73
2021/12/10 03:16:24;;;;;;;8.35;7.55;;;;;;;;;;12495179;28;20041;-73
2021/12/10 03:22:26;;;;;;;9.95;9.02;;;;;;;;;;12493025;28;20057;-73
2021/12/10 03:28:28;;;;;;;8.23;7.43;;;;;;;;;;12492306;28;20037;-73
2021/12/10 03:34:30;;;;;;;9.95;8.95;;;;;;;;;;12491815;28;20038;-73
2021/12/10 03:40:32;;;;;;;8.68;7.97;;;;;;;;;;12492685;28;20403;-74
2021/12/10 03:46:34;;;;;;;8.30;7.15;;;;;;;;;;12499063;28;20386;-74
2021/12/10 03:52:36;;;;;;;9.18;8.27;;;;;;;;;;12500590;28;20104;-74
2021/12/10 03:58:38;;;;;;;9.43;8.50;;;;;;;;;;12501420;28;20052;-74
2021/12/10 04:04:46;;;;;;;10.02;9.02;;;;;;;;;;12500960;28;20037;-74
2021/12/10 04:10:48;;;;;;;8.75;7.93;;;;;;;;;;12499755;28;20395;-74
2021/12/10 04:16:55;;;;;;;10.38;9.27;;;;;;;;;;12498834;28;20046;-74
2021/12/10 04:22:58;;;;;;;8.20;7.50;;;;;;;;;;12500195;28;20049;-74
2021/12/10 04:29:00;;;;;;;8.65;7.85;;;;;;;;;;12498573;28;20052;-74
2021/12/10 04:35:02;;;;;;;8.13;7.43;;;;;;;;;;12498449;28;20045;-74
2021/12/10 04:41:05;;;;;;;7.38;6.78;;;;;;;;;;12498512;28;20037;-74
2021/12/10 04:47:07;;;;;;;8.23;7.53;;;;;;;;;;12499027;28;20037;-74
2021/12/10 04:53:09;;;;;;;8.52;7.72;;;;;;;;;;12498696;28;20387;-74
2021/12/10 04:59:13;;;;;;;7.23;6.63;;;;;;;;;;12499897;28;20033;-74
2021/12/10 05:05:15;;;;;;;9.75;7.55;;;;;;;;;;12498226;28;20037;-74
2021/12/10 05:11:17;;;;;;;7.10;6.50;;;;;;;;;;12496849;28;20048;-73
2021/12/10 05:17:19;;;;;;;7.75;6.68;;;;;;;;;;12479673;28;20049;-74
2021/12/10 05:23:21;;;;;;;9.75;8.93;;;;;;;;;;12496294;28;20403;-74
2021/12/10 05:29:23;;;;;;;8.20;7.50;;;;;;;;;;12495933;28;20663;-74
2021/12/10 05:35:24;;;;;;;7.80;7.15;;;;;;;;;;12496790;28;20033;-74
2021/12/10 05:41:26;;;;;;;9.75;8.82;;;;;;;;;;12478865;28;20044;-73
2021/12/10 05:47:28;;;;;;;10.10;9.20;;;;;;;;;;12495068;28;20044;-74
2021/12/10 05:53:30;;;;;;;7.05;6.45;;;;;;;;;;12495720;28;20037;-74
2021/12/10 05:59:31;;;;;;;6.80;6.20;;;;;;;;;;12494077;28;20033;-74
2021/12/10 06:05:34;;;;;;;8.07;7.45;;;;;;;;;;12494778;28;20483;-73
2021/12/10 06:11:36;;;;;;;13.03;12.03;;;;;;;;;;12494050;28;20391;-75
2021/12/10 06:17:38;;;;;;;9.77;8.88;;;;;;;;;;12494835;28;20060;-75
2021/12/10 06:23:40;;;;;;;9.32;8.52;;;;;;;;;;12493729;28;20497;-75
2021/12/10 06:29:42;;;;;;;10.63;9.67;;;;;;;;;;12495179;28;20038;-75
2021/12/10 06:35:46;;;;;;;9.47;8.67;;;;;;;;;;12494451;28;20037;-75
2021/12/10 06:41:50;;;;;;;18.05;16.25;;;;;;;;;;12492675;28;20041;-75
2021/12/10 06:47:55;;;;;;;12.55;11.45;;;;;;;;;;12515337;28;20033;-75
2021/12/10 06:53:57;;;;;;;10.65;9.65;;;;;;;;;;12523139;28;20044;-75
2021/12/10 06:59:59;;;;;;;9.55;8.65;;;;;;;;;;12521730;28;20033;-75
2021/12/10 07:06:01;;;;;;;16.55;14.90;;;;;;;;;;12518974;28;20036;-75
2021/12/10 07:12:03;;;;;;;14.80;13.40;;;;;;;;;;12503474;28;20029;-75
2021/12/10 07:18:05;;;;;;;12.43;11.27;;;;;;;;;;12514034;28;20089;-74
2021/12/10 07:24:09;;;;;;;9.93;9.03;;;;;;;;;;12515888;28;20064;-74
2021/12/10 07:30:11;;;;;;;9.73;8.82;;;;;;;;;;12522651;28;20386;-79
2021/12/10 07:36:15;;;;;;;28.43;19.83;;;;;;;;;;12521120;28;20479;-78
2021/12/10 07:42:16;;;;;;;21.38;15.68;;;;;;;;;;12527891;28;20049;-80
2021/12/10 07:48:20;;;;;;;14.88;13.38;;;;;;;;;;12508246;28;20021;-78
2021/12/10 07:54:22;;;;;;;13.40;12.10;;;;;;;;;;12517836;28;20037;-77
2021/12/10 08:00:26;;;;;;;12.85;11.65;;;;;;;;;;12491314;28;20056;-78
2021/12/10 08:06:28;;;;;;;14.95;13.55;;;;;;;;;;12513567;28;20493;-77
2021/12/10 08:12:30;;;;;;;12.23;11.07;;;;;;;;;;12521102;28;20032;-78
2021/12/10 08:18:32;;;;;;;16.70;15.00;;;;;;;;;;12517618;28;20033;-79
2021/12/10 08:24:33;;;;;;;14.27;12.88;;;;;;;;;;12505375;28;20398;-79
2021/12/10 08:30:36;;;;;;;13.80;12.43;;;;;;;;;;12507981;28;20501;-79
2021/12/10 08:36:38;;;;;;;10.43;9.48;;;;;;;;;;12531237;28;20040;-79
2021/12/10 08:42:41;;;;;;;12.02;10.85;;;;;;;;;;12514413;28;20490;-77
2021/12/10 08:48:43;;;;;;;10.45;9.45;;;;;;;;;;12520426;28;20033;-79
2021/12/10 08:54:45;;;;;;;11.00;10.00;;;;;;;;;;12516592;28;20037;-80
2021/12/10 09:00:49;;;;;;;11.30;10.20;;;;;;;;;;12520709;28;20045;-78
2021/12/10 09:06:55;;;;;;;13.48;12.07;;;;;;;;;;12518386;28;20048;-78
2021/12/10 09:12:57;;;;;;;12.95;11.15;;;;;;;;;;12506538;28;20501;-78
2021/12/10 09:19:01;;;;;;;12.20;10.98;;;;;;;;;;12513944;28;20057;-80
2021/12/10 09:25:04;;;;;;;11.40;10.20;;;;;;;;;;12505760;28;20406;-78
2021/12/10 09:31:06;;;;;;;10.37;8.90;;;;;;;;;;12518437;28;20032;-76
2021/12/10 09:37:07;;;;;;;13.63;9.07;;;;;;;;;;12513953;28;20029;-75
2021/12/10 09:43:11;;;;;;;8.25;7.45;;;;;;;;;;12506110;28;20038;-77
2021/12/10 09:49:12;;;;;;;;;;;;;;;;;;12503785;28;20096;-77
2021/12/10 09:55:16;;;;;;;10.30;9.20;;;;;;;;;;12482253;28;19920;-74
2021/12/10 10:01:20;;;;;;;11.80;10.63;;;;;;;;;;12510698;28;20045;-76
2021/12/10 10:07:32;;;;;;;11.68;10.57;;;;;;;;;;12500619;28;20406;-75
2021/12/10 10:13:35;;;;;;;8.80;7.90;;;;;;;;;;12504339;28;20421;-76
2021/12/10 10:19:37;;;;;;;8.27;7.30;;;;;;;;;;12491008;28;20071;-75
2021/12/10 10:25:40;;;;;;;7.45;6.75;;;;;;;;;;12521291;28;20045;-76
2021/12/10 10:31:46;;;;;;;7.05;6.07;;;;;;;;;;12521110;28;20021;-75
2021/12/10 10:37:47;;;;;;;5.85;5.25;;;;;;;;;;12521394;28;20046;-74
2021/12/10 10:43:49;;;;;;;5.72;5.22;;;;;;;;;;12513828;28;20053;-75
2021/12/10 10:50:03;;;;;;;5.05;4.53;;;;;;;;;;12500112;28;20033;-74
2021/12/10 10:56:12;;;;;;;3.92;3.53;;;;;;;;;;12538993;28;20036;-73
2021/12/10 11:02:14;;;;;;;3.42;3.05;;;;;;;;;;12529824;28;20045;-74
2021/12/10 11:08:26;;;;;;;3.40;3.10;;;;;;;;;;12505938;28;20048;-75
2021/12/10 11:14:38;;;;;;;2.95;2.75;;;;;;;;;;12521893;28;20437;-75
2021/12/10 11:20:43;;;;;;;2.33;2.15;;;;;;;;;;12525921;28;20045;-76
2021/12/10 11:27:04;;;;;;;2.25;2.10;;;;;;;;;;12513580;28;20378;-76
2021/12/10 11:33:11;;;;;;;3.20;2.90;;;;;;;;;;12492237;28;20034;-76
2021/12/10 11:39:13;;;;;;;2.03;1.92;;;;;;;;;;12513363;28;20044;-76
2021/12/10 11:45:41;;;;;;;2.00;1.75;;;;;;;;;;12515904;28;20422;-76
2021/12/10 11:51:55;;;;;;;2.00;1.90;;;;;;;;;;12523522;28;20033;-75
2021/12/10 11:57:57;;;;;;;2.28;1.55;;;;;;;;;;12517841;28;20041;-76
2021/12/10 12:04:14;;;;;;;1.90;1.80;;;;;;;;;;12535215;28;20037;-76
2021/12/10 12:10:23;;;;;;;1.33;1.23;;;;;;;;;;12505937;28;20025;-75
2021/12/10 12:16:27;;;;;;;1.85;1.70;;;;;;;;;;12523824;28;20045;-74
2021/12/10 12:28:55;;;;;;;1.60;1.50;;;;;;;;;;12499671;28;20490;-76
2021/12/10 12:34:57;;;;;;;1.85;1.73;;;;;;;;;;12498903;28;20025;-75
2021/12/10 12:41:10;;;;;;;1.50;1.40;;;;;;;;;;12498812;28;20551;-75
2021/12/10 12:47:26;;;;;;;1.58;1.48;;;;;;;;;;12500941;28;20044;-77
2021/12/10 12:53:30;;;;;;;1.38;1.27;;;;;;;;;;12497232;28;20038;-76
2021/12/10 12:59:32;;;;;;;1.45;1.35;;;;;;;;;;12496966;28;20036;-76
2021/12/10 13:05:47;;;;;;;1.77;1.67;;;;;;;;;;12525183;28;20036;-77
2021/12/10 13:12:16;;;;;;;1.73;1.60;;;;;;;;;;12533944;28;20037;-78
2021/12/10 13:18:20;;;;;;;2.17;1.92;;;;;;;;;;12535395;28;20501;-78
2021/12/10 13:24:22;;;;;;;1.55;1.45;;;;;;;;;;12518425;28;20049;-76
2021/12/10 13:30:26;;;;;;;1.63;1.52;;;;;;;;;;12510808;28;20044;-77
2021/12/10 13:36:28;;;;;;;1.50;1.35;;;;;;;;;;12512987;28;20039;-77
2021/12/10 13:42:30;;;;;;;4.55;3.95;;;;;;;;;;12516716;28;20535;-76
2021/12/10 13:48:39;;;;;;;11.63;9.10;;;;;;;;;;12541902;28;20355;-77
2021/12/10 13:54:44;;;;;;;7.00;5.70;;;;;;;;;;12543677;28;20044;-78
2021/12/10 14:00:58;;;;;;;5.40;4.25;;;;;;;;;;12544891;28;20025;-77
2021/12/10 14:07:10;;;;;;;4.15;3.75;;;;;;;;;;12526523;28;20040;-76
2021/12/10 14:13:24;;;;;;;3.78;2.97;;;;;;;;;;12544501;28;20036;-77
2021/12/10 14:19:35;;;;;;;2.08;1.88;;;;;;;;;;12544087;28;20056;-77
2021/12/10 14:25:45;;;;;;;3.38;3.08;;;;;;;;;;12541435;28;20044;-76
2021/12/10 14:31:48;;;;;;;3.92;2.47;;;;;;;;;;12526177;28;20116;-78
2021/12/10 14:37:52;;;;;;;4.25;3.40;;;;;;;;;;12542920;28;20044;-78
2021/12/10 14:43:58;;;;;;;3.72;3.30;;;;;;;;;;12543756;28;20041;-77
2021/12/10 14:50:02;;;;;;;3.78;2.63;;;;;;;;;;12526899;28;20466;-78
2021/12/10 14:56:23;;;;;;;5.47;3.50;;;;;;;;;;12542139;28;20052;-77
2021/12/10 15:02:29;;;;;;;3.30;2.70;;;;;;;;;;12543126;28;20048;-76
2021/12/10 15:08:34;;;;;;;3.47;2.95;;;;;;;;;;12543109;28;20477;-76
2021/12/10 15:14:40;;;;;;;3.97;2.42;;;;;;;;;;12541855;28;20040;-76
2021/12/10 15:20:41;;;;;;;3.58;2.95;;;;;;;;;;12542760;28;20056;-77
2021/12/10 15:26:43;;;;;;;4.07;3.33;;;;;;;;;;12542764;28;20033;-78
2021/12/10 15:32:52;;;;;;;3.53;3.22;;;;;;;;;;12541216;28;20025;-77
2021/12/10 15:38:56;;;;;;;2.55;2.35;;;;;;;;;;12526709;28;20037;-77
2021/12/10 15:44:58;;;;;;;4.28;3.50;;;;;;;;;;12549908;28;20048;-77
2021/12/10 15:51:01;;;;;;;4.60;3.95;;;;;;;;;;12550006;28;20037;-77
2021/12/10 15:57:12;;;;;;;3.65;3.35;;;;;;;;;;12532832;28;20037;-76
2021/12/10 16:03:13;;;;;;;4.07;3.55;;;;;;;;;;12549339;28;20071;-76
2021/12/10 16:09:18;;;;;;;5.68;4.88;;;;;;;;;;12550191;28;20037;-76
2021/12/10 16:15:22;;;;;;;12.38;9.68;;;;;;;;;;12550109;28;20052;-75
2021/12/10 16:21:36;;;;;;;17.58;12.93;;;;;;;;;;12547952;28;20056;-76
2021/12/10 16:27:43;;;;;;;36.80;24.25;;;;;;;;;;12531519;28;20060;-76
2021/12/10 16:33:46;;;;;;;27.02;21.05;;;;;;;;;;12549156;28;20043;-76
2021/12/10 16:39:48;;;;;;;22.25;18.15;;;;;;;;;;12548454;28;20275;-76
2021/12/10 16:45:53;;;;;;;18.73;15.57;;;;;;;;;;12530379;28;20049;-76
2021/12/10 16:52:00;;;;;;;15.73;14.13;;;;;;;;;;12546982;28;20052;-75
2021/12/10 16:58:04;;;;;;;12.18;10.98;;;;;;;;;;12547950;28;20103;-76
2021/12/10 17:04:06;;;;;;;14.80;13.40;;;;;;;;;;12546137;28;20405;-76
2021/12/10 17:10:18;;;;;;;12.90;11.03;;;;;;;;;;12546777;28;20032;-76
2021/12/10 17:16:23;;;;;;;12.07;10.13;;;;;;;;;;12545911;28;20037;-77
2021/12/10 17:22:32;;;;;;;14.27;11.15;;;;;;;;;;12528681;28;20045;-76
2021/12/10 17:28:37;;;;;;;13.65;12.07;;;;;;;;;;12546060;28;20424;-76
2021/12/10 17:34:43;;;;;;;16.33;12.85;;;;;;;;;;12545725;28;20037;-76
2021/12/10 17:40:55;;;;;;;14.02;12.63;;;;;;;;;;12545757;28;20044;-76
2021/12/10 17:46:58;;;;;;;17.08;14.95;;;;;;;;;;12544041;28;20075;-76
2021/12/10 17:53:01;;;;;;;27.45;20.45;;;;;;;;;;12543899;28;20049;-76
2021/12/10 17:59:05;;;;;;;50.10;31.60;;;;;;;;;;12544148;28;20492;-76
2021/12/10 18:05:12;;;;;;;34.35;23.00;;;;;;;;;;12542644;28;20060;-76
2021/12/10 18:11:16;;;;;;;18.05;13.13;;;;;;;;;;12543197;28;20037;-76
2021/12/10 18:17:19;;;;;;;12.18;10.07;;;;;;;;;;12542520;28;20147;-76
2021/12/10 18:23:24;;;;;;;9.85;7.95;;;;;;;;;;12543994;28;20409;-76
2021/12/10 18:29:33;;;;;;;9.63;8.73;;;;;;;;;;12543885;28;20044;-77
2021/12/10 18:35:35;;;;;;;7.55;6.78;;;;;;;;;;12542348;28;20044;-77
2021/12/10 18:41:38;;;;;;;8.07;7.28;;;;;;;;;;12541834;28;20052;-77
2021/12/10 18:47:41;;;;;;;8.32;6.88;;;;;;;;;;12542237;28;20029;-77
2021/12/10 18:53:48;;;;;;;6.90;6.05;;;;;;;;;;12542170;28;20045;-77
2021/12/10 18:59:58;;;;;;;7.82;6.88;;;;;;;;;;12543612;28;20033;-77
2021/12/10 19:06:08;;;;;;;9.15;8.25;;;;;;;;;;12542255;28;20052;-76
2021/12/10 19:12:19;;;;;;;9.75;8.15;;;;;;;;;;12544119;28;20393;-77
2021/12/10 19:18:37;;;;;;;7.80;7.10;;;;;;;;;;12551940;28;20509;-76
2021/12/10 19:24:44;;;;;;;9.65;7.50;;;;;;;;;;12551053;28;20052;-79
2021/12/10 19:30:56;;;;;;;10.68;9.07;;;;;;;;;;12550468;28;20036;-76
2021/12/10 19:37:20;;;;;;;11.18;9.95;;;;;;;;;;12552520;28;20079;-76
2021/12/10 19:43:25;;;;;;;13.35;11.95;;;;;;;;;;12550014;28;20041;-76
2021/12/10 19:49:30;;;;;;;11.50;10.30;;;;;;;;;;12550082;28;20037;-76
2021/12/10 19:55:35;;;;;;;16.13;12.95;;;;;;;;;;12532913;28;20041;-76
2021/12/10 20:01:43;;;;;;;14.15;12.57;;;;;;;;;;12533156;28;20040;-77
2021/12/10 20:07:55;;;;;;;13.30;11.90;;;;;;;;;;12550406;28;20041;-76
2021/12/10 20:13:57;;;;;;;14.27;12.68;;;;;;;;;;12549142;28;20025;-79
2021/12/10 20:20:05;;;;;;;13.93;10.80;;;;;;;;;;12549533;28;20056;-75
2021/12/10 20:26:11;;;;;;;11.20;10.10;;;;;;;;;;12547240;28;20045;-78
2021/12/10 20:32:19;;;;;;;12.05;10.90;;;;;;;;;;12531366;28;20036;-77
2021/12/10 20:38:21;;;;;;;11.98;10.77;;;;;;;;;;12547551;28;20513;-76
2021/12/10 20:44:32;;;;;;;11.30;10.07;;;;;;;;;;12530855;28;20500;-76
2021/12/10 20:50:36;;;;;;;12.80;10.60;;;;;;;;;;12547796;28;20178;-77
2021/12/10 20:56:42;;;;;;;11.02;9.60;;;;;;;;;;12530315;28;20048;-75
2021/12/10 21:02:49;;;;;;;10.57;9.57;;;;;;;;;;12546601;28;20051;-76
2021/12/10 21:08:52;;;;;;;10.27;8.55;;;;;;;;;;12546075;28;20036;-76
2021/12/10 21:14:57;;;;;;;11.35;10.15;;;;;;;;;;12545687;28;20032;-76
2021/12/10 21:21:09;;;;;;;11.18;9.35;;;;;;;;;;12529486;28;20060;-75
2021/12/10 21:27:26;;;;;;;8.50;7.68;;;;;;;;;;12546562;28;20047;-76
2021/12/10 21:33:42;;;;;;;6.10;5.50;;;;;;;;;;12528620;28;20041;-76
2021/12/10 21:40:07;;;;;;;8.05;7.25;;;;;;;;;;12543656;28;20028;-76
2021/12/10 21:46:11;;;;;;;6.03;5.45;;;;;;;;;;12545604;28;20045;-76
2021/12/10 21:52:15;;;;;;;5.88;5.13;;;;;;;;;;12528128;28;20040;-76
2021/12/10 21:58:18;;;;;;;9.25;8.30;;;;;;;;;;12543916;28;20037;-77
2021/12/10 22:04:24;;;;;;;6.95;6.25;;;;;;;;;;12526858;28;20052;-76
2021/12/10 22:10:29;;;;;;;5.78;5.18;;;;;;;;;;12544761;28;20381;-77
2021/12/10 22:16:33;;;;;;;5.75;5.15;;;;;;;;;;12544366;28;20040;-78
2021/12/10 22:22:38;;;;;;;5.05;4.65;;;;;;;;;;12543271;28;20053;-77
2021/12/10 22:28:49;;;;;;;5.25;4.75;;;;;;;;;;12542715;28;20029;-76
2021/12/10 22:35:03;;;;;;;5.80;5.00;;;;;;;;;;12542879;28;20048;-76
2021/12/10 22:41:08;;;;;;;4.43;4.07;;;;;;;;;;12542620;28;20033;-75
2021/12/10 22:47:12;;;;;;;4.90;4.43;;;;;;;;;;12543717;28;20508;-76
2021/12/10 22:53:19;;;;;;;4.70;4.13;;;;;;;;;;12536152;28;20047;-76
2021/12/10 22:59:25;;;;;;;6.82;6.13;;;;;;;;;;12553597;28;20041;-75
2021/12/10 23:05:33;;;;;;;6.75;5.95;;;;;;;;;;12552008;28;20037;-75
2021/12/10 23:11:35;;;;;;;6.43;5.82;;;;;;;;;;12552995;28;20367;-75
2021/12/10 23:18:00;;;;;;;8.07;7.27;;;;;;;;;;12551380;28;20056;-76
2021/12/10 23:24:11;;;;;;;7.25;6.53;;;;;;;;;;12533749;28;20072;-75
2021/12/10 23:30:19;;;;;;;11.77;10.00;;;;;;;;;;12551127;28;20390;-76
2021/12/10 23:36:22;;;;;;;6.82;5.63;;;;;;;;;;12533878;28;20048;-75
2021/12/10 23:42:36;;;;;;;7.22;6.53;;;;;;;;;;12550255;28;20502;-75
2021/12/10 23:48:43;;;;;;;6.53;5.75;;;;;;;;;;12551925;28;20037;-76
2021/12/10 23:54:51;;;;;;;8.02;6.65;;;;;;;;;;12533347;28;20063;-76
